Time;durP1;ratioP1;P1;durP2;ratioP2;P2;SDS_P1;SDS_P2;PMS_P1;PMS_P2;Temp;Humidity;BMP_temperature;BMP_pressure;BME280_temperature;BME280_humidity;BME280_pressure;Samples;Min_cycle;Max_cycle;Signal;HPM_P1;HPM_P2
2024/04/01 00:01:37;;;;;;;6.10;2.70;;;13.90;98.00;;;;;;5011971;28;20451;-66
2024/04/01 00:04:04;;;;;;;10.20;2.57;;;13.80;98.00;;;;;;5012235;28;20459;-66
2024/04/01 00:06:30;;;;;;;10.20;2.77;;;13.80;98.00;;;;;;5011784;28;20985;-66
2024/04/01 00:09:05;;;;;;;10.17;3.23;;;14.00;98.00;;;;;;5012028;28;21169;-66
2024/04/01 00:11:33;;;;;;;8.20;2.50;;;14.00;98.00;;;;;;5011907;28;20888;-66
2024/04/01 00:14:03;;;;;;;4.47;2.47;;;14.00;98.00;;;;;;5012177;28;20483;-66
2024/04/01 00:16:29;;;;;;;12.57;2.80;;;13.90;98.00;;;;;;5010747;28;20452;-66
2024/04/01 00:18:57;;;;;;;6.50;2.47;;;14.00;98.00;;;;;;5012114;28;20463;-66
2024/04/01 00:21:24;;;;;;;7.13;2.83;;;14.00;98.00;;;;;;5012041;28;20452;-66
2024/04/01 00:23:56;;;;;;;11.77;2.50;;;13.90;98.00;;;;;;5012065;28;20522;-66
2024/04/01 00:26:22;;;;;;;5.87;2.60;;;13.90;98.00;;;;;;5011998;28;20452;-66
2024/04/01 00:28:51;;;;;;;7.17;2.40;;;13.90;98.00;;;;;;5015375;28;20864;-66
2024/04/01 00:31:17;;;;;;;8.30;3.00;;;14.10;98.00;;;;;;5015683;28;20491;-66
2024/04/01 00:33:44;;;;;;;5.17;2.30;;;14.00;98.00;;;;;;5015888;28;20981;-66
2024/04/01 00:36:10;;;;;;;7.20;2.40;;;13.90;98.00;;;;;;5015717;28;20459;-66
2024/04/01 00:38:37;;;;;;;3.70;2.10;;;13.70;98.00;;;;;;5015604;28;20467;-66
2024/04/01 00:41:04;;;;;;;7.00;2.90;;;13.60;98.00;;;;;;5015732;28;20462;-66
2024/04/01 00:43:32;;;;;;;7.80;2.30;;;13.60;98.00;;;;;;5015481;28;20980;-66
2024/04/01 00:45:59;;;;;;;6.00;2.30;;;13.70;98.00;;;;;;5015680;28;20455;-66
2024/04/01 00:48:26;;;;;;;6.73;2.73;;;13.60;98.00;;;;;;5015658;28;20459;-66
2024/04/01 00:50:53;;;;;;;12.03;2.53;;;13.40;98.00;;;;;;5015553;28;20490;-66
2024/04/01 00:53:21;;;;;;;6.10;2.63;;;13.30;98.00;;;;;;5015619;28;20455;-66
2024/04/01 00:55:47;;;;;;;5.00;2.23;;;13.30;98.00;;;;;;5015036;28;20451;-66
2024/04/01 00:58:16;;;;;;;9.30;2.83;;;13.40;98.00;;;;;;5015265;28;20470;-66
2024/04/01 01:00:46;;;;;;;4.53;2.27;;;13.40;98.00;;;;;;5015190;28;20482;-66
2024/04/01 01:03:15;;;;;;;4.23;2.40;;;13.20;98.00;;;;;;5015085;28;20467;-66
2024/04/01 01:05:41;;;;;;;11.27;2.57;;;13.20;98.00;;;;;;5014812;28;20945;-66
2024/04/01 01:08:10;;;;;;;15.97;2.30;;;13.20;98.00;;;;;;5014221;28;20462;-66
2024/04/01 01:10:36;;;;;;;9.93;2.30;;;13.20;98.00;;;;;;5013655;28;20491;-66
2024/04/01 01:13:04;;;;;;;5.77;2.50;;;13.10;98.00;;;;;;5014869;28;20499;-66
2024/04/01 01:15:30;;;;;;;4.80;2.10;;;13.00;98.00;;;;;;5015013;28;20466;-66
2024/04/01 01:17:58;;;;;;;5.27;2.23;;;13.10;98.00;;;;;;5014612;28;20468;-66
2024/04/01 01:20:26;;;;;;;8.10;2.17;;;13.00;98.00;;;;;;5014946;28;20448;-66
2024/04/01 01:22:56;;;;;;;4.73;2.10;;;13.10;98.00;;;;;;5014706;28;20464;-66
2024/04/01 01:25:22;;;;;;;6.43;2.57;;;13.10;98.00;;;;;;5014557;28;20551;-66
2024/04/01 01:27:49;;;;;;;3.83;2.30;;;13.10;98.00;;;;;;5013342;28;20474;-66
2024/04/01 01:30:17;;;;;;;5.43;2.30;;;13.00;98.00;;;;;;5013346;28;20985;-66
2024/04/01 01:32:46;;;;;;;6.63;2.90;;;13.10;98.00;;;;;;5014294;28;20887;-66
2024/04/01 01:35:14;;;;;;;6.70;2.40;;;13.10;98.00;;;;;;5012814;28;20454;-66
2024/04/01 01:37:41;;;;;;;4.73;2.20;;;13.00;98.00;;;;;;5014237;28;20475;-66
2024/04/01 01:40:09;;;;;;;5.60;2.60;;;13.00;98.00;;;;;;5013726;28;20462;-66
2024/04/01 01:42:36;;;;;;;13.67;2.70;;;12.90;98.00;;;;;;5014166;28;20471;-66
2024/04/01 01:45:03;;;;;;;8.23;2.30;;;12.80;98.00;;;;;;5014485;28;20875;-66
2024/04/01 01:47:32;;;;;;;5.77;2.47;;;12.60;98.00;;;;;;5014370;28;20459;-66
2024/04/01 01:49:59;;;;;;;6.23;2.30;;;12.60;98.00;;;;;;5014114;28;20463;-66
2024/04/01 01:52:26;;;;;;;5.53;2.27;;;12.60;98.00;;;;;;5014339;28;20517;-66
2024/04/01 01:54:52;;;;;;;9.70;2.80;;;12.70;98.00;;;;;;5014151;28;20467;-66
2024/04/01 01:57:22;;;;;;;10.67;2.50;;;12.60;98.00;;;;;;5014124;28;20491;-66
2024/04/01 01:59:48;;;;;;;4.83;2.33;;;12.50;98.00;;;;;;5013926;28;20479;-66
2024/04/01 02:02:16;;;;;;;5.23;2.50;;;12.40;98.00;;;;;;5014062;28;20501;-66
2024/04/01 02:04:43;;;;;;;6.60;2.37;;;12.30;98.00;;;;;;5012788;28;20447;-66
2024/04/01 02:07:10;;;;;;;5.97;2.17;;;12.30;98.00;;;;;;5014060;28;20557;-66
2024/04/01 02:09:36;;;;;;;12.13;2.37;;;12.40;98.00;;;;;;5014116;28;20934;-66
2024/04/01 02:12:07;;;;;;;5.80;2.67;;;12.30;98.00;;;;;;5014018;28;20484;-66
2024/04/01 02:14:35;;;;;;;7.67;2.20;;;12.30;98.00;;;;;;5014120;28;20447;-66
2024/04/01 02:17:02;;;;;;;4.70;2.20;;;12.30;98.00;;;;;;5013862;28;20474;-66
2024/04/01 02:19:29;;;;;;;5.03;2.30;;;12.20;98.00;;;;;;5014040;28;20554;-66
2024/04/01 02:21:56;;;;;;;6.10;2.60;;;12.40;98.00;;;;;;5013860;28;20517;-66
2024/04/01 02:24:23;;;;;;;9.47;2.50;;;12.50;98.00;;;;;;5013859;28;21082;-65
2024/04/01 02:26:50;;;;;;;8.40;2.30;;;12.50;98.00;;;;;;5013761;28;20875;-66
2024/04/01 02:29:16;;;;;;;3.17;2.20;;;12.50;98.00;;;;;;5012990;28;21000;-66
2024/04/01 02:31:45;;;;;;;5.93;2.53;;;12.30;98.00;;;;;;5013620;28;20491;-66
2024/04/01 02:34:14;;;;;;;7.43;2.67;;;12.30;98.00;;;;;;5013894;28;20469;-66
2024/04/01 02:36:41;;;;;;;6.50;2.47;;;12.20;98.00;;;;;;5013453;28;20466;-66
2024/04/01 02:39:16;;;;;;;5.67;2.53;;;12.10;98.00;;;;;;5012132;28;20458;-66
2024/04/01 02:41:43;;;;;;;4.07;2.10;;;11.90;98.00;;;;;;5013232;28;20546;-66
2024/04/01 02:44:10;;;;;;;5.53;2.13;;;11.80;98.00;;;;;;5012209;28;20448;-66
2024/04/01 02:46:37;;;;;;;6.03;2.00;;;11.80;98.00;;;;;;5012977;28;20954;-66
2024/04/01 02:49:05;;;;;;;6.60;2.23;;;11.70;98.00;;;;;;5011886;28;20451;-66
2024/04/01 02:51:32;;;;;;;3.63;2.10;;;11.70;98.00;;;;;;5011931;28;20585;-66
2024/04/01 02:53:58;;;;;;;5.40;2.40;;;11.70;98.00;;;;;;5011791;28;20462;-66
2024/04/01 02:56:25;;;;;;;4.00;2.00;;;11.60;98.00;;;;;;5012795;28;21134;-66
2024/04/01 02:58:52;;;;;;;4.97;2.23;;;11.70;98.00;;;;;;5012594;28;20946;-66
2024/04/01 03:01:20;;;;;;;11.20;2.20;;;11.90;98.00;;;;;;5012347;28;20896;-66
2024/04/01 03:03:46;;;;;;;8.40;2.40;;;12.00;98.00;;;;;;5012774;28;20468;-66
2024/04/01 03:06:14;;;;;;;4.83;2.40;;;12.00;98.00;;;;;;5012001;28;20559;-66
2024/04/01 03:08:41;;;;;;;6.20;2.90;;;11.90;98.00;;;;;;5012824;28;20465;-66
2024/04/01 03:11:09;;;;;;;5.40;2.70;;;11.80;98.00;;;;;;5011604;28;20986;-66
2024/04/01 03:13:35;;;;;;;6.23;2.73;;;11.70;98.00;;;;;;5012795;28;20459;-66
2024/04/01 03:16:05;;;;;;;6.63;2.83;;;11.50;98.00;;;;;;5012764;28;20485;-66
2024/04/01 03:18:32;;;;;;;7.93;2.60;;;11.40;98.00;;;;;;5012517;28;20739;-66
2024/04/01 03:21:00;;;;;;;9.60;3.20;;;11.60;98.00;;;;;;5012803;28;21171;-66
2024/04/01 03:23:28;;;;;;;4.80;2.30;;;11.50;98.00;;;;;;5011309;28;20818;-66
2024/04/01 03:25:55;;;;;;;5.80;2.30;;;11.60;98.00;;;;;;5012313;28;20865;-66
2024/04/01 03:28:22;;;;;;;5.37;2.30;;;11.60;98.00;;;;;;5011898;28;20462;-66
2024/04/01 03:30:50;;;;;;;5.80;2.23;;;11.50;98.00;;;;;;5011910;28;20486;-66
2024/04/01 03:33:16;;;;;;;7.40;2.60;;;11.40;98.00;;;;;;5012491;28;20457;-66
2024/04/01 03:35:43;;;;;;;5.93;2.00;;;11.30;98.00;;;;;;5012603;28;20889;-65
2024/04/01 03:38:11;;;;;;;4.53;2.07;;;11.30;98.00;;;;;;5012394;28;20474;-66
2024/04/01 03:40:41;;;;;;;6.77;2.77;;;11.20;98.00;;;;;;5012360;28;20454;-66
2024/04/01 03:43:10;;;;;;;5.60;2.50;;;11.20;98.00;;;;;;5012227;28;20461;-65
2024/04/01 03:45:36;;;;;;;9.87;2.17;;;11.20;98.00;;;;;;5012318;28;20453;-66
2024/04/01 03:48:04;;;;;;;5.37;2.37;;;11.30;98.00;;;;;;5012318;28;20475;-66
2024/04/01 03:50:31;;;;;;;5.30;2.30;;;11.30;98.00;;;;;;5012181;28;20545;-66
2024/04/01 03:52:59;;;;;;;5.30;2.27;;;11.20;98.00;;;;;;5010961;28;20465;-66
2024/04/01 03:55:28;;;;;;;4.37;2.40;;;11.20;98.00;;;;;;5012315;28;20827;-66
2024/04/01 03:57:57;;;;;;;8.43;2.70;;;11.20;98.00;;;;;;5012123;28;20461;-66
2024/04/01 04:00:23;;;;;;;6.53;2.27;;;11.20;98.00;;;;;;5010252;28;20465;-66
2024/04/01 04:02:51;;;;;;;10.13;2.63;;;11.10;98.00;;;;;;5010812;28;20471;-65
2024/04/01 04:05:17;;;;;;;3.60;2.10;;;11.10;98.00;;;;;;5011439;28;20450;-66
2024/04/01 04:07:44;;;;;;;13.83;3.17;;;11.20;98.00;;;;;;5011332;28;21007;-66
2024/04/01 04:10:11;;;;;;;6.33;2.33;;;11.30;98.00;;;;;;5011908;28;20951;-66
2024/04/01 04:12:38;;;;;;;7.40;2.80;;;11.40;98.00;;;;;;5011232;28;20809;-66
2024/04/01 04:15:09;;;;;;;4.40;2.40;;;11.70;98.00;;;;;;5012283;28;20451;-66
2024/04/01 04:17:37;;;;;;;5.13;2.40;;;11.70;98.00;;;;;;5011989;28;20463;-66
2024/04/01 04:20:05;;;;;;;9.13;3.00;;;11.70;98.00;;;;;;5010957;28;20546;-66
2024/04/01 04:22:33;;;;;;;12.83;2.30;;;11.70;98.00;;;;;;5012018;28;20470;-66
2024/04/01 04:24:59;;;;;;;12.53;2.80;;;11.70;98.00;;;;;;5012032;28;20456;-66
2024/04/01 04:27:27;;;;;;;13.40;2.87;;;11.70;98.00;;;;;;5012292;28;20458;-66
2024/04/01 04:29:53;;;;;;;4.83;2.20;;;11.60;98.00;;;;;;5010753;28;20461;-66
2024/04/01 04:32:22;;;;;;;7.23;3.47;;;11.70;98.00;;;;;;5011722;28;20493;-66
2024/04/01 04:34:48;;;;;;;6.37;2.63;;;11.50;98.00;;;;;;5011382;28;20793;-65
2024/04/01 04:37:16;;;;;;;11.47;2.30;;;11.70;98.00;;;;;;5010699;28;20832;-65
2024/04/01 04:39:43;;;;;;;5.40;2.57;;;11.80;98.00;;;;;;5009873;28;20459;-66
2024/04/01 04:42:10;;;;;;;4.03;2.60;;;11.80;98.00;;;;;;5011703;28;20676;-68
2024/04/01 04:44:37;;;;;;;9.27;2.90;;;11.70;98.00;;;;;;5011424;28;20458;-68
2024/04/01 04:47:04;;;;;;;7.23;2.60;;;11.70;98.00;;;;;;5011065;28;20502;-65
2024/04/01 04:49:32;;;;;;;13.80;5.87;;;11.60;98.00;;;;;;5011386;28;20463;-65
2024/04/01 04:51:59;;;;;;;5.40;3.10;;;11.40;98.00;;;;;;5011523;28;20577;-65
2024/04/01 04:54:25;;;;;;;7.93;2.73;;;11.40;98.00;;;;;;5010220;28;20962;-66
2024/04/01 04:56:58;;;;;;;7.00;2.43;;;11.60;98.00;;;;;;5010912;28;20491;-65
2024/04/01 04:59:25;;;;;;;6.63;2.50;;;11.60;98.00;;;;;;5009678;28;20461;-66
2024/04/01 05:01:52;;;;;;;7.17;2.70;;;11.60;98.00;;;;;;5010669;28;21011;-66
2024/04/01 05:04:18;;;;;;;3.80;2.50;;;11.70;98.00;;;;;;5011283;28;20458;-65
2024/04/01 05:06:46;;;;;;;12.57;2.90;;;11.90;98.00;;;;;;5011106;28;20465;-65
2024/04/01 05:09:13;;;;;;;4.00;2.60;;;11.90;98.00;;;;;;5011187;28;20465;-66
2024/04/01 05:11:40;;;;;;;3.73;2.40;;;11.80;98.00;;;;;;5011146;28;20499;-65
2024/04/01 05:14:08;;;;;;;5.00;2.50;;;11.70;98.00;;;;;;5012400;28;20458;-66
2024/04/01 05:16:35;;;;;;;4.93;2.90;;;11.70;98.00;;;;;;5014886;28;20878;-66
2024/04/01 05:19:01;;;;;;;6.23;2.40;;;11.70;98.00;;;;;;5014153;28;20459;-66
2024/04/01 05:21:28;;;;;;;6.57;2.50;;;11.70;98.00;;;;;;5014850;28;20524;-66
2024/04/01 05:23:56;;;;;;;5.37;2.73;;;11.70;98.00;;;;;;5014738;28;20967;-65
2024/04/01 05:26:23;;;;;;;6.53;3.17;;;11.80;98.00;;;;;;5014617;28;20573;-65
2024/04/01 05:28:49;;;;;;;5.93;3.00;;;11.70;98.00;;;;;;5013491;28;20456;-65
2024/04/01 05:31:17;;;;;;;4.17;2.80;;;11.70;98.00;;;;;;5014588;28;20482;-65
2024/04/01 05:33:43;;;;;;;5.33;3.10;;;11.60;98.00;;;;;;5013323;28;20457;-65
2024/04/01 05:36:10;;;;;;;9.67;2.93;;;11.60;98.00;;;;;;5014645;28;20465;-66
2024/04/01 05:38:37;;;;;;;6.60;3.50;;;11.70;98.00;;;;;;5014427;28;20991;-66
2024/04/01 05:41:06;;;;;;;4.50;3.17;;;11.70;98.00;;;;;;5014708;28;20963;-66
2024/04/01 05:43:32;;;;;;;6.47;3.63;;;11.60;98.00;;;;;;5013379;28;20455;-66
2024/04/01 05:45:59;;;;;;;5.90;3.70;;;11.60;98.00;;;;;;5014397;28;20465;-66
2024/04/01 05:48:25;;;;;;;9.27;3.80;;;11.70;98.00;;;;;;5014226;28;20455;-66
2024/04/01 05:50:55;;;;;;;8.70;3.73;;;11.60;98.00;;;;;;5014294;28;20949;-65
2024/04/01 05:53:22;;;;;;;8.50;3.67;;;11.50;98.00;;;;;;5014453;28;20456;-65
2024/04/01 05:55:49;;;;;;;5.90;3.10;;;11.40;98.00;;;;;;5014232;28;20473;-65
2024/04/01 05:58:17;;;;;;;8.43;3.37;;;11.20;98.00;;;;;;5014269;28;20457;-62
2024/04/01 06:00:44;;;;;;;8.20;3.40;;;11.20;98.00;;;;;;5012333;28;20574;-62
2024/04/01 06:03:10;;;;;;;8.50;3.27;;;11.40;98.00;;;;;;5013047;28;20951;-62
2024/04/01 06:05:38;;;;;;;9.73;3.37;;;11.30;98.00;;;;;;5013066;28;20468;-62
2024/04/01 06:08:06;;;;;;;8.90;4.20;;;11.30;98.00;;;;;;5014140;28;20451;-62
2024/04/01 06:10:38;;;;;;;7.30;3.93;;;11.30;98.00;;;;;;5014165;28;20473;-62
2024/04/01 06:13:04;;;;;;;9.37;5.20;;;11.40;98.00;;;;;;5014022;28;20572;-62
2024/04/01 06:15:33;;;;;;;10.40;4.80;;;11.30;98.00;;;;;;5013595;28;20464;-62
2024/04/01 06:18:00;;;;;;;8.83;5.20;;;11.30;98.00;;;;;;5013926;28;20448;-62
2024/04/01 06:20:28;;;;;;;9.10;5.03;;;11.30;98.00;;;;;;5013904;28;20473;-62
2024/04/01 06:22:54;;;;;;;9.30;4.50;;;11.30;98.00;;;;;;5013967;28;20546;-62
2024/04/01 06:25:21;;;;;;;8.40;4.50;;;11.40;98.00;;;;;;5013608;28;20524;-62
2024/04/01 06:27:50;;;;;;;9.17;5.30;;;11.30;98.00;;;;;;5011468;28;20457;-62
2024/04/01 06:30:17;;;;;;;9.23;5.20;;;11.20;98.00;;;;;;5013081;28;20482;-62
2024/04/01 06:32:47;;;;;;;10.53;5.80;;;11.10;98.00;;;;;;5013327;28;20750;-62
2024/04/01 06:35:14;;;;;;;8.97;4.93;;;11.00;98.00;;;;;;5013576;28;20495;-62
2024/04/01 06:37:40;;;;;;;13.17;6.40;;;11.20;98.00;;;;;;5012138;28;20452;-62
2024/04/01 06:40:09;;;;;;;8.13;4.70;;;11.20;98.00;;;;;;5013271;28;20466;-62
2024/04/01 06:42:35;;;;;;;9.50;4.90;;;11.20;98.00;;;;;;5012027;28;20539;-62
2024/04/01 06:45:03;;;;;;;10.80;5.50;;;11.20;98.00;;;;;;5013651;28;20484;-62
2024/04/01 06:47:30;;;;;;;8.40;5.00;;;11.10;98.00;;;;;;5012040;28;20790;-62
2024/04/01 06:49:59;;;;;;;10.37;4.83;;;11.20;98.00;;;;;;5011787;28;20468;-62
2024/04/01 06:52:25;;;;;;;8.83;4.70;;;11.20;98.00;;;;;;5013125;28;20496;-62
2024/04/01 06:54:53;;;;;;;11.93;5.10;;;11.30;98.00;;;;;;5013028;28;20470;-62
2024/04/01 06:57:19;;;;;;;7.57;4.77;;;11.30;98.00;;;;;;5013192;28;20458;-62
2024/04/01 06:59:46;;;;;;;7.87;4.37;;;11.40;98.00;;;;;;5012809;28;20489;-62
2024/04/01 07:02:13;;;;;;;9.23;4.60;;;11.40;98.00;;;;;;5011674;28;20969;-62
2024/04/01 07:04:40;;;;;;;7.43;4.40;;;11.40;98.00;;;;;;5011842;28;20459;-62
2024/04/01 07:07:07;;;;;;;8.37;4.43;;;11.40;98.00;;;;;;5013089;28;20462;-62
2024/04/01 07:09:34;;;;;;;7.83;4.60;;;11.40;98.00;;;;;;5012568;28;20462;-62
2024/04/01 07:12:00;;;;;;;7.10;4.60;;;11.30;98.00;;;;;;5012358;28;20552;-62
2024/04/01 07:14:29;;;;;;;7.50;4.10;;;11.30;98.00;;;;;;5011552;28;20554;-62
2024/04/01 07:16:55;;;;;;;5.50;3.80;;;11.30;98.00;;;;;;5012934;28;20461;-62
2024/04/01 07:19:22;;;;;;;6.90;4.10;;;11.30;98.00;;;;;;5012743;28;20546;-62
2024/04/01 07:21:49;;;;;;;8.13;4.33;;;11.20;98.00;;;;;;5012633;28;20545;-62
2024/04/01 07:24:17;;;;;;;5.20;3.50;;;11.20;98.00;;;;;;5012545;28;21003;-62
2024/04/01 07:26:43;;;;;;;5.80;3.57;;;11.20;98.00;;;;;;5011386;28;20456;-62
2024/04/01 07:29:10;;;;;;;6.57;3.77;;;11.20;98.00;;;;;;5012824;28;20549;-62
2024/04/01 07:31:36;;;;;;;8.37;4.27;;;11.40;98.00;;;;;;5012525;28;20493;-62
2024/04/01 07:34:04;;;;;;;5.77;4.00;;;11.30;98.00;;;;;;5011924;28;20465;-62
2024/04/01 07:36:31;;;;;;;6.30;3.80;;;11.20;98.00;;;;;;5011941;28;20479;-62
2024/04/01 07:38:58;;;;;;;6.40;4.07;;;11.10;98.00;;;;;;5011366;28;20471;-62
2024/04/01 07:41:28;;;;;;;9.30;4.37;;;11.10;98.00;;;;;;5012519;28;20458;-62
2024/04/01 07:43:55;;;;;;;8.90;4.20;;;11.30;98.00;;;;;;5012587;28;20531;-62
2024/04/01 07:46:22;;;;;;;6.37;3.80;;;11.20;98.00;;;;;;5011413;28;20843;-62
2024/04/01 07:48:49;;;;;;;5.50;3.40;;;11.30;98.00;;;;;;5012542;28;20468;-62
2024/04/01 07:51:15;;;;;;;8.50;3.30;;;11.20;98.00;;;;;;5012407;28;20955;-62
2024/04/01 07:53:42;;;;;;;5.40;3.13;;;11.10;98.00;;;;;;5011507;28;20467;-62
2024/04/01 07:56:09;;;;;;;5.27;3.13;;;11.20;98.00;;;;;;5011356;28;20461;-62
2024/04/01 07:58:37;;;;;;;6.03;2.90;;;11.30;98.00;;;;;;5012335;28;20881;-62
2024/04/01 08:01:05;;;;;;;3.77;2.70;;;11.30;98.00;;;;;;5012485;28;20462;-62
2024/04/01 08:03:32;;;;;;;4.13;2.70;;;11.30;98.00;;;;;;5012178;28;20457;-62
2024/04/01 08:05:58;;;;;;;3.53;2.40;;;11.50;98.00;;;;;;5012515;28;20458;-62
2024/04/01 08:08:25;;;;;;;3.83;2.53;;;11.70;98.00;;;;;;5012337;28;20805;-62
2024/04/01 08:10:52;;;;;;;5.70;3.80;;;11.90;98.00;;;;;;5012259;28;20453;-62
2024/04/01 08:13:19;;;;;;;6.67;4.03;;;12.10;98.00;;;;;;5011877;28;21171;-62
2024/04/01 08:15:56;;;;;;;6.50;4.00;;;12.20;98.00;;;;;;5010968;28;20831;-62
2024/04/01 08:18:24;;;;;;;7.37;3.90;;;12.10;98.00;;;;;;5011996;28;20506;-62
2024/04/01 08:20:50;;;;;;;6.53;3.90;;;12.10;98.00;;;;;;5011982;28;20461;-62
2024/04/01 08:23:20;;;;;;;9.43;3.77;;;12.00;98.00;;;;;;5011990;28;20459;-62
2024/04/01 08:25:46;;;;;;;6.60;3.47;;;11.70;98.00;;;;;;5011675;28;20519;-62
2024/04/01 08:28:13;;;;;;;6.43;3.50;;;11.60;98.00;;;;;;5010781;28;20498;-62
2024/04/01 08:30:40;;;;;;;4.03;3.17;;;11.50;98.00;;;;;;5011238;28;20821;-62
2024/04/01 08:33:08;;;;;;;4.00;2.70;;;11.40;98.00;;;;;;5011732;28;20828;-62
2024/04/01 08:35:35;;;;;;;3.23;2.20;;;11.50;98.00;;;;;;5011579;28;20510;-62
2024/04/01 08:38:02;;;;;;;4.00;1.73;;;11.50;98.00;;;;;;5011499;28;20523;-62
2024/04/01 08:40:33;;;;;;;3.17;2.10;;;11.40;98.00;;;;;;5011814;28;20460;-62
2024/04/01 08:43:09;;;;;;;2.90;1.70;;;11.20;98.00;;;;;;5010532;28;20488;-62
2024/04/01 08:45:37;;;;;;;2.63;1.90;;;11.30;98.00;;;;;;5011739;28;20509;-62
2024/04/01 08:48:13;;;;;;;1.87;1.53;;;11.20;98.00;;;;;;5012633;28;20475;-62
2024/04/01 08:50:46;;;;;;;1.33;1.33;;;11.30;98.00;;;;;;5013890;28;20458;-62
2024/04/01 08:53:18;;;;;;;1.50;1.40;;;11.50;98.00;;;;;;5015481;28;20492;-62
2024/04/01 08:55:44;;;;;;;3.20;1.60;;;11.50;98.00;;;;;;5015517;28;20462;-62
2024/04/01 08:58:11;;;;;;;1.73;1.50;;;11.50;98.00;;;;;;5015411;28;20466;-62
2024/04/01 09:00:38;;;;;;;1.53;1.30;;;11.60;98.00;;;;;;5015218;28;20475;-62
2024/04/01 09:03:05;;;;;;;3.30;1.50;;;11.70;98.00;;;;;;5015411;28;20526;-62
2024/04/01 09:05:33;;;;;;;1.87;1.43;;;12.00;98.00;;;;;;5014163;28;20454;-62
2024/04/01 09:08:01;;;;;;;1.50;1.40;;;12.10;98.00;;;;;;5015414;28;20867;-62
2024/04/01 09:10:28;;;;;;;1.40;1.30;;;12.20;98.00;;;;;;5013987;28;20525;-62
2024/04/01 09:12:59;;;;;;;2.27;1.20;;;12.20;98.00;;;;;;5012439;28;20494;-62
2024/04/01 09:15:26;;;;;;;1.70;1.30;;;12.20;98.00;;;;;;5013681;28;20466;-62
2024/04/01 09:17:53;;;;;;;1.90;1.37;;;12.20;98.00;;;;;;5013953;28;20462;-62
2024/04/01 09:20:23;;;;;;;1.33;1.20;;;12.10;98.00;;;;;;5014422;28;20459;-62
2024/04/01 09:22:51;;;;;;;1.43;1.40;;;12.10;98.00;;;;;;5013549;28;20963;-62
2024/04/01 09:25:18;;;;;;;2.60;1.20;;;12.00;98.00;;;;;;5014995;28;20458;-62
2024/04/01 09:27:45;;;;;;;1.90;1.30;;;12.10;98.00;;;;;;5013469;28;20573;-62
2024/04/01 09:30:11;;;;;;;2.07;1.30;;;12.10;98.00;;;;;;5014460;28;20466;-62
2024/04/01 09:32:39;;;;;;;1.20;1.10;;;12.20;98.00;;;;;;5014557;28;20497;-62
2024/04/01 09:35:05;;;;;;;4.13;1.10;;;12.10;98.00;;;;;;5014501;28;20454;-62
2024/04/01 09:37:33;;;;;;;1.20;1.00;;;12.10;98.00;;;;;;5014550;28;20540;-62
2024/04/01 09:40:03;;;;;;;1.50;1.30;;;12.20;98.00;;;;;;5014722;28;20449;-62
2024/04/01 09:42:31;;;;;;;1.60;1.20;;;12.30;98.00;;;;;;5011181;28;20850;-62
2024/04/01 09:44:57;;;;;;;1.30;1.10;;;12.40;98.00;;;;;;5013961;28;20863;-62
2024/04/01 09:47:26;;;;;;;1.63;1.20;;;12.30;98.00;;;;;;5013675;28;20814;-63
2024/04/01 09:49:54;;;;;;;1.20;1.13;;;12.20;98.00;;;;;;5014255;28;20822;-62
2024/04/01 09:52:21;;;;;;;1.57;1.30;;;12.20;98.00;;;;;;5014441;28;20849;-62
2024/04/01 09:54:50;;;;;;;1.20;1.10;;;12.40;98.00;;;;;;5013775;28;20458;-62
2024/04/01 09:57:49;;;;;;;1.33;1.17;;;12.50;98.00;;;;;;5013033;28;20965;-62
2024/04/01 10:00:16;;;;;;;1.30;1.10;;;12.60;98.00;;;;;;5013429;28;20480;-63
2024/04/01 10:03:20;;;;;;;1.57;1.10;;;12.70;98.00;;;;;;5014207;28;20545;-63
2024/04/01 10:06:34;;;;;;;3.70;1.20;;;12.60;98.00;;;;;;5011505;28;20458;-63
2024/04/01 10:09:30;;;;;;;1.47;1.30;;;12.50;98.00;;;;;;5013818;28;20484;-63
2024/04/01 10:12:19;;;;;;;1.30;1.10;;;12.30;98.00;;;;;;5011994;28;20491;-63
2024/04/01 10:15:22;;;;;;;1.23;1.10;;;12.20;98.00;;;;;;5013795;28;20524;-62
2024/04/01 10:18:11;;;;;;;1.30;1.20;;;12.20;98.00;;;;;;5011841;28;20465;-62
2024/04/01 10:21:03;;;;;;;1.33;1.10;;;12.20;98.00;;;;;;5013562;28;20497;-62
2024/04/01 10:23:54;;;;;;;1.57;1.13;;;12.20;98.00;;;;;;5013712;28;20500;-62
2024/04/01 10:26:42;;;;;;;1.40;1.17;;;12.30;98.00;;;;;;5013303;28;20851;-62
2024/04/01 10:29:44;;;;;;;1.30;1.17;;;12.20;98.00;;;;;;5013570;28;20895;-62
2024/04/01 10:33:02;;;;;;;3.93;1.10;;;12.20;98.00;;;;;;5012153;28;21032;-62
2024/04/01 10:36:08;;;;;;;1.37;1.10;;;12.10;98.00;;;;;;4991523;28;20466;-62
2024/04/01 10:39:00;;;;;;;1.20;1.00;;;11.90;98.00;;;;;;5011381;28;20471;-61
2024/04/01 10:41:48;;;;;;;1.57;1.00;;;11.80;98.00;;;;;;5013261;28;20458;-62
2024/04/01 10:44:40;;;;;;;1.40;1.10;;;11.80;98.00;;;;;;5012849;28;20976;-62
2024/04/01 10:47:28;;;;;;;2.80;1.10;;;11.80;98.00;;;;;;5010579;28;20462;-62
2024/04/01 10:50:17;;;;;;;1.33;1.00;;;11.90;98.00;;;;;;5011961;28;20854;-62
2024/04/01 10:53:03;;;;;;;1.40;1.00;;;11.90;98.00;;;;;;5012869;28;20517;-62
2024/04/01 10:56:14;;;;;;;3.30;1.97;;;12.00;98.00;;;;;;5013014;28;21144;-62
2024/04/01 10:59:25;;;;;;;1.47;1.17;;;12.00;98.00;;;;;;4997452;28;20968;-62
2024/04/01 11:02:15;;;;;;;1.20;1.00;;;11.90;98.00;;;;;;5011169;28;20602;-61
2024/04/01 11:04:58;;;;;;;1.20;1.10;;;11.80;98.00;;;;;;5012295;28;20540;-62
2024/04/01 11:07:40;;;;;;;1.10;0.90;;;11.70;98.00;;;;;;5012225;28;20471;-62
2024/04/01 11:10:17;;;;;;;1.17;0.90;;;11.70;98.00;;;;;;5012851;28;20460;-62
2024/04/01 11:12:53;;;;;;;1.20;1.10;;;11.70;98.00;;;;;;5011871;28;20488;-62
2024/04/01 11:15:20;;;;;;;1.20;1.00;;;11.80;98.00;;;;;;5012948;28;20451;-62
2024/04/01 11:17:54;;;;;;;2.80;1.00;;;12.00;98.00;;;;;;5012846;28;20497;-62
2024/04/01 11:20:44;;;;;;;1.20;1.00;;;12.00;98.00;;;;;;5011862;28;20462;-62
2024/04/01 11:23:55;;;;;;;1.20;1.00;;;12.10;98.00;;;;;;5011431;28;20479;-62
2024/04/01 11:26:43;;;;;;;1.20;1.00;;;11.90;98.00;;;;;;5010209;28;20456;-62
2024/04/01 11:29:20;;;;;;;1.20;1.00;;;11.90;98.00;;;;;;5012815;28;20473;-62
2024/04/01 11:31:55;;;;;;;1.20;1.00;;;12.10;98.00;;;;;;5012777;28;20460;-62
2024/04/01 11:34:28;;;;;;;1.20;1.00;;;12.20;98.00;;;;;;5012704;28;20460;-62
2024/04/01 11:37:07;;;;;;;1.23;1.10;;;12.50;98.00;;;;;;5011340;28;20478;-62
2024/04/01 11:39:38;;;;;;;1.20;1.00;;;12.60;98.00;;;;;;5012290;28;20980;-62
2024/04/01 11:42:09;;;;;;;1.57;1.10;;;12.70;98.00;;;;;;5011182;28;20458;-62
2024/04/01 11:44:38;;;;;;;1.20;1.00;;;12.80;98.00;;;;;;5012260;28;20464;-62
2024/04/01 11:47:06;;;;;;;1.20;1.00;;;12.70;98.00;;;;;;5012259;28;20465;-62
2024/04/01 11:49:39;;;;;;;1.20;1.00;;;12.50;98.00;;;;;;5011956;28;20462;-62
2024/04/01 11:52:12;;;;;;;1.23;1.07;;;12.50;98.00;;;;;;5011717;28;20448;-62
2024/04/01 11:54:39;;;;;;;1.23;1.00;;;12.40;98.00;;;;;;5012158;28;20458;-62
2024/04/01 11:57:06;;;;;;;1.20;1.00;;;12.40;98.00;;;;;;5012313;28;20502;-62
2024/04/01 11:59:33;;;;;;;1.13;0.93;;;12.30;98.00;;;;;;5011661;28;20473;-62
2024/04/01 12:02:11;;;;;;;2.63;1.10;;;12.10;98.00;;;;;;5011884;28;20951;-62
2024/04/01 12:04:38;;;;;;;1.20;1.00;;;11.90;98.00;;;;;;5012148;28;20471;-63
2024/04/01 12:07:04;;;;;;;4.30;1.10;;;11.80;98.00;;;;;;5012200;28;20485;-63
2024/04/01 12:09:34;;;;;;;1.40;1.10;;;11.80;98.00;;;;;;5011968;28;20532;-62
2024/04/01 12:12:00;;;;;;;1.17;1.00;;;11.80;98.00;;;;;;5011724;28;20457;-62
2024/04/01 12:14:29;;;;;;;1.30;1.00;;;11.60;98.00;;;;;;5012009;28;20479;-62
2024/04/01 12:17:00;;;;;;;1.30;1.00;;;11.70;98.00;;;;;;5012141;28;20495;-62
2024/04/01 12:19:27;;;;;;;1.20;1.10;;;11.70;98.00;;;;;;5010822;28;20463;-62
2024/04/01 12:21:54;;;;;;;1.20;1.00;;;11.70;98.00;;;;;;5011697;28;20516;-62
2024/04/01 12:24:22;;;;;;;1.30;1.00;;;11.70;98.00;;;;;;5015442;28;21140;-63
2024/04/01 12:26:51;;;;;;;1.20;1.00;;;11.70;98.00;;;;;;5016141;28;20463;-62
2024/04/01 12:29:19;;;;;;;2.60;1.10;;;11.70;98.00;;;;;;5014748;28;21096;-62
2024/04/01 12:31:47;;;;;;;1.20;1.00;;;11.70;98.00;;;;;;5015765;28;20457;-62
2024/04/01 12:34:15;;;;;;;1.30;1.00;;;11.80;98.00;;;;;;5015551;28;20571;-62
2024/04/01 12:36:43;;;;;;;1.20;1.00;;;12.00;98.00;;;;;;5015959;28;20903;-62
2024/04/01 12:39:13;;;;;;;1.27;1.00;;;12.20;98.00;;;;;;5015776;28;20545;-63
2024/04/01 12:41:40;;;;;;;5.57;1.10;;;12.30;98.00;;;;;;5015016;28;20477;-63
2024/04/01 12:44:09;;;;;;;1.17;0.93;;;12.30;98.00;;;;;;5015790;28;20474;-64
2024/04/01 12:46:38;;;;;;;1.20;1.10;;;12.20;98.00;;;;;;5015671;28;20460;-63
2024/04/01 12:49:12;;;;;;;1.30;1.03;;;12.20;98.00;;;;;;5015521;28;20452;-62
2024/04/01 12:51:40;;;;;;;2.83;1.03;;;12.10;98.00;;;;;;5015661;28;20460;-62
2024/04/01 12:54:28;;;;;;;1.30;1.03;;;12.10;98.00;;;;;;5014276;28;21226;-62
2024/04/01 12:57:07;;;;;;;1.40;1.00;;;12.20;98.00;;;;;;5014452;28;20466;-62
2024/04/01 12:59:44;;;;;;;1.20;1.00;;;12.20;98.00;;;;;;5015223;28;20472;-63
2024/04/01 13:02:27;;;;;;;1.20;1.00;;;12.20;98.00;;;;;;5014500;28;20506;-62